Dixiana, South Carolina
Current Conditions -  °F | °C
As of 9:56 AM on Saturday 20 Dec 2014 (Local Time) from KCAE Reporting Station
Overcast Overcast  
Wind Chill: 44°   Ceiling: 2100
Heat Index: 47°   Visibility: 8mi
Dew Point: 43°   Wind: 6mph
Humidity: 86%   Direction: 90°E
Pressure: 30.24"   Gusts: NA
Location:  33.9973°N, 81.0998°W
Report Text: KCAE 201456Z 09005KT 8SM BKN021 OVC060 08/06 A3024 RMK AO2 RAE09 PRESRR SLP241 P0000 60001 T00830061 53019
Loading
Personal Weather Stations






























Interactive Weather Map New forecast layout! Learn more

10-Day Weather Forecast

Advertisements
Track Severe Weather on mobile